• Join FlightAware (Why Join?)
  • Login
  • US Flag 
03:28PM EDT


 

Airport Tracker/Info


-or-


 

Live Flight TrackerFlight Track Log ✈ AWI3780 ✈ 04-May-2013 ✈ KBTV - KPHL

Flight Track Log - Related Links

Times and Time Zones

All times are in EDT time to prevent confusion due to time zone crossing. See the AWI3780 flight status page for this flight to view local times or setup timezone preferences in your user account.

Time Position Orientation Groundspeed Altitude Reporting Facility
EDT Latitude Longitude Course Direction KTS MPH feet Rate Location/Type
04:00PM 44.1339 -73.2731 196° South  Level FlightAware Approximate
04:01PM 44.0233 -73.3174 196° South  Level FlightAware Approximate
04:01PM 44.3869 -73.3464 189° South 286 329 9,100  Level Boston Center
04:02PM 43.9127 -73.3616 196° South  Level FlightAware Approximate
04:02PM 44.3075 -73.3714 193° South 281 323 11,100  Level Boston Center
04:03PM 43.8015 -73.4031 195° South  Level FlightAware Approximate
04:03PM 44.2261 -73.3933 191° South 298 343 14,000  Level Boston Center
04:04PM 43.6903 -73.4441 195° South  Level FlightAware Approximate
04:04PM 44.1406 -73.4178 192° South 309 356 16,300  Level Boston Center
04:05PM 43.5790 -73.4848 194° South  Level FlightAware Approximate
04:05PM 44.0464 -73.4453 192° South 322 371 17,900  Level Boston Center
04:06PM 43.9525 -73.4697 191° South 346 398 19,800 1,800 Climbing Boston Center
04:07PM 43.8500 -73.4994 192° South 361 415 21,600 1,500 Climbing Boston Center
04:08PM 43.7686 -73.5211 191° South 377 434 22,900 1,620 Climbing Boston Center
04:09PM 43.6411 -73.5561 191° South 387 445 24,900 1,500 Climbing Boston Center
04:10PM 43.5325 -73.5883 192° South 392 451 26,000 540 Climbing Boston Center
04:11PM 43.4217 -73.6178 191° South 398 458 26,000  Level Boston Center
04:12PM 43.3131 -73.6472 191° South 398 458 26,000  Level Boston Center
04:13PM 43.2064 -73.6764 191° South 398 458 26,000  Level Boston Center
04:14PM 43.1186 -73.7031 193° South 398 458 26,000  Level Boston Center
04:15PM 43.0017 -73.7347 191° South 398 458 26,000  Level Boston Center
04:16PM 42.8928 -73.7664 192° South 398 458 26,000  Level Boston Center
04:17PM 42.7842 -73.7953 191° South 398 458 26,000  Level Boston Center
04:18PM 42.6975 -73.8836 217° Southwest 380 437 26,000  Level Boston Center
04:19PM 42.6439 -74.0122 240° Southwest 372 428 26,000  Level Boston Center
04:20PM 42.5792 -74.1544 238° Southwest 394 453 26,000  Level Boston Center
04:21PM 42.5211 -74.2739 237° Southwest 394 453 26,000  Level Boston Center
04:22PM 42.4606 -74.3961 236° Southwest 394 453 26,000  Level Boston Center
04:23PM 42.4044 -74.5039 235° Southwest 394 453 26,000 -360 Level Boston Center
04:25PM 42.2647 -74.7442 232° Southwest 393 452 24,900 -900 Descending New York Center
04:26PM 42.1886 -74.8431 224° Southwest 393 452 23,400 -1,500 Descending New York Center
04:27PM 42.1144 -74.9419 225° Southwest 381 438 21,900 -1,560 Descending New York Center
04:28PM 42.0403 -75.0350 223° Southwest 370 426 20,300 -1,440 Descending New York Center
04:29PM 41.9597 -75.1386 224° Southwest 365 420 19,100 -660 Descending New York Center
04:30PM 41.8875 -75.2314 224° Southwest 365 420 19,000 -60 Descending New York Center
04:31PM 41.7944 -75.2725 198° South 376 433 19,000 -60 Level New York Center
04:32PM 41.7169 -75.3367 212° Southwest 376 433 18,900 -720 Descending New York Center
04:33PM 41.6331 -75.4031 211° Southwest 371 427 17,600 -1,500 Descending New York Center
04:34PM 41.5472 -75.4719 211° Southwest 342 394 15,900 -1,500 Descending New York Center
04:35PM 41.4675 -75.5328 210° Southwest 332 382 14,700 -1,260 Descending New York Center
04:36PM 41.3878 -75.5992 212° Southwest 332 382 13,400 -1,320 Descending New York Center
04:37PM 41.3125 -75.6572 210° Southwest 332 382 12,100 -780 Descending New York Center
04:38PM 41.2447 -75.6881 199° South 309 356 11,900 -120 Descending New York Center
04:39PM 41.1656 -75.6878 180° South 286 329 11,900 -480 Level New York Center
04:40PM 41.0831 -75.6653 168° South 281 323 11,000 -900 Descending New York Center
04:41PM 41.0072 -75.6378 165° South 281 323 10,100 -540 Descending New York Center
04:42PM 40.9372 -75.6136 165° South 281 323 10,000 -60 Descending New York Center
04:43PM 40.8531 -75.5831 165° South 287 330 10,000  Level New York Center
04:44PM 40.7772 -75.5531 163° South 287 330 10,000  Level New York Center
04:45PM 40.7014 -75.5258 165° South 287 330 10,000  Level New York Center
04:46PM 40.6336 -75.4992 163° South 287 330 10,000  Level New York Center
04:47PM 40.5597 -75.4722 165° South 282 325 10,000  Level New York Center
04:48PM 40.4856 -75.4453 165° South 282 325 10,000 -300 Level New York Center
04:49PM 40.4017 -75.4069 161° South 282 325 9,400 -1,080 Descending New York Center
04:50PM 40.3386 -75.3700 156° South 277 319 7,900 -1,260 Descending New York Center
04:51PM 40.2544 -75.3889 190° South 277 319 7,000 -840 Descending New York Center
04:52PM 40.1783 -75.4192 197° South 287 330 6,300 -540 Descending New York Center
04:53PM 40.1042 -75.4469 196° South 287 330 6,000 -180 Descending New York Center
04:54PM 40.0364 -75.4719 196° South 275 316 6,000  Level New York Center
04:55PM 39.9792 -75.4953 197° South 234 269 6,000  Level New York Center
04:56PM 39.9286 -75.5136 196° South 201 231 6,000 -600 Level New York Center
04:57PM 39.8781 -75.5208 186° South 188 216 4,900 -1,260 Descending New York Center
04:58PM 39.8419 -75.4914 148° Southeast 155 178 3,500 -1,320 Descending New York Center
04:59PM 39.8294 -75.4339 106° East 145 167 2,200 -1,080 Descending New York Center
05:00PM 39.8333 -75.3833 84° East 159 183 1,500 -720 Descending Philadelphia TRACON
05:01PM 39.8500 -75.3333 67° East 118 136 800 -660 Descending Philadelphia TRACON
05:02PM 39.8667 -75.2833 67° East 124 143 200 -600 Descending Philadelphia TRACON